sensor_id;sensor_type;location;lat;lon;timestamp;P1;durP1;ratioP1;P2;durP2;ratioP2
81026;SDS011;70506;49.320;8.446;2024-03-23T00:56:07;8.40;;;3.75;;
81026;SDS011;70506;49.320;8.446;2024-03-23T00:58:32;8.45;;;4.53;;
81026;SDS011;70506;49.320;8.446;2024-03-23T01:00:57;7.80;;;4.17;;
81026;SDS011;70506;49.320;8.446;2024-03-23T01:03:23;9.20;;;3.95;;
81026;SDS011;70506;49.320;8.446;2024-03-23T01:05:48;6.47;;;3.63;;
81026;SDS011;70506;49.320;8.446;2024-03-23T01:08:14;9.87;;;3.90;;
81026;SDS011;70506;49.320;8.446;2024-03-23T01:10:39;7.68;;;4.63;;
81026;SDS011;70506;49.320;8.446;2024-03-23T01:13:05;8.03;;;4.10;;
81026;SDS011;70506;49.320;8.446;2024-03-23T01:15:30;8.03;;;4.20;;
81026;SDS011;70506;49.320;8.446;2024-03-23T01:17:55;6.90;;;4.17;;
81026;SDS011;70506;49.320;8.446;2024-03-23T01:20:20;9.80;;;4.53;;
81026;SDS011;70506;49.320;8.446;2024-03-23T01:22:46;9.27;;;4.47;;
81026;SDS011;70506;49.320;8.446;2024-03-23T01:25:11;8.27;;;3.97;;
81026;SDS011;70506;49.320;8.446;2024-03-23T01:27:36;7.75;;;4.53;;
81026;SDS011;70506;49.320;8.446;2024-03-23T01:30:02;10.57;;;3.97;;
81026;SDS011;70506;49.320;8.446;2024-03-23T01:32:27;8.13;;;4.68;;
81026;SDS011;70506;49.320;8.446;2024-03-23T01:34:53;7.63;;;4.05;;
81026;SDS011;70506;49.320;8.446;2024-03-23T01:37:18;6.57;;;3.93;;
81026;SDS011;70506;49.320;8.446;2024-03-23T01:39:43;8.63;;;4.55;;
81026;SDS011;70506;49.320;8.446;2024-03-23T01:42:09;9.65;;;4.65;;
81026;SDS011;70506;49.320;8.446;2024-03-23T01:44:34;7.13;;;4.17;;
81026;SDS011;70506;49.320;8.446;2024-03-23T01:46:59;6.37;;;3.53;;
81026;SDS011;70506;49.320;8.446;2024-03-23T01:49:25;7.93;;;4.10;;
81026;SDS011;70506;49.320;8.446;2024-03-23T01:51:50;7.80;;;3.83;;
81026;SDS011;70506;49.320;8.446;2024-03-23T01:54:16;8.17;;;3.27;;
81026;SDS011;70506;49.320;8.446;2024-03-23T01:56:41;9.40;;;3.93;;
81026;SDS011;70506;49.320;8.446;2024-03-23T01:59:06;6.82;;;3.72;;
81026;SDS011;70506;49.320;8.446;2024-03-23T02:01:32;5.60;;;3.42;;
81026;SDS011;70506;49.320;8.446;2024-03-23T02:03:58;10.38;;;3.65;;
81026;SDS011;70506;49.320;8.446;2024-03-23T02:06:24;6.60;;;3.80;;
81026;SDS011;70506;49.320;8.446;2024-03-23T02:08:50;6.38;;;3.60;;
81026;SDS011;70506;49.320;8.446;2024-03-23T02:11:17;6.90;;;3.60;;
81026;SDS011;70506;49.320;8.446;2024-03-23T02:13:43;6.40;;;3.50;;
81026;SDS011;70506;49.320;8.446;2024-03-23T02:16:08;5.47;;;3.27;;
81026;SDS011;70506;49.320;8.446;2024-03-23T02:18:33;6.68;;;3.65;;
81026;SDS011;70506;49.320;8.446;2024-03-23T02:20:59;5.72;;;3.08;;
81026;SDS011;70506;49.320;8.446;2024-03-23T02:23:24;7.35;;;3.88;;
81026;SDS011;70506;49.320;8.446;2024-03-23T02:25:50;8.33;;;3.10;;
81026;SDS011;70506;49.320;8.446;2024-03-23T02:28:15;5.95;;;3.53;;
81026;SDS011;70506;49.320;8.446;2024-03-23T02:30:40;5.50;;;2.80;;
81026;SDS011;70506;49.320;8.446;2024-03-23T02:33:06;6.30;;;3.30;;
81026;SDS011;70506;49.320;8.446;2024-03-23T02:35:31;8.40;;;3.77;;
81026;SDS011;70506;49.320;8.446;2024-03-23T02:37:57;6.45;;;3.40;;
81026;SDS011;70506;49.320;8.446;2024-03-23T02:40:22;6.93;;;3.20;;
81026;SDS011;70506;49.320;8.446;2024-03-23T02:42:48;5.75;;;3.33;;
81026;SDS011;70506;49.320;8.446;2024-03-23T02:45:14;7.55;;;3.00;;
81026;SDS011;70506;49.320;8.446;2024-03-23T02:47:39;6.63;;;3.30;;
81026;SDS011;70506;49.320;8.446;2024-03-23T02:50:04;6.47;;;3.83;;
81026;SDS011;70506;49.320;8.446;2024-03-23T02:52:30;5.78;;;3.53;;
81026;SDS011;70506;49.320;8.446;2024-03-23T02:54:56;6.53;;;3.53;;
81026;SDS011;70506;49.320;8.446;2024-03-23T02:57:21;7.03;;;4.07;;
81026;SDS011;70506;49.320;8.446;2024-03-23T02:59:47;7.18;;;4.28;;
81026;SDS011;70506;49.320;8.446;2024-03-23T03:02:12;6.75;;;3.97;;
81026;SDS011;70506;49.320;8.446;2024-03-23T03:04:38;6.93;;;3.78;;
81026;SDS011;70506;49.320;8.446;2024-03-23T03:07:03;7.97;;;3.63;;
81026;SDS011;70506;49.320;8.446;2024-03-23T03:09:29;7.53;;;3.63;;
81026;SDS011;70506;49.320;8.446;2024-03-23T03:11:54;9.80;;;4.45;;
81026;SDS011;70506;49.320;8.446;2024-03-23T03:14:20;8.85;;;4.38;;
81026;SDS011;70506;49.320;8.446;2024-03-23T03:16:45;10.30;;;4.27;;
81026;SDS011;70506;49.320;8.446;2024-03-23T03:19:10;7.57;;;4.20;;
81026;SDS011;70506;49.320;8.446;2024-03-23T03:21:36;8.90;;;3.85;;
81026;SDS011;70506;49.320;8.446;2024-03-23T03:24:02;8.15;;;4.03;;
81026;SDS011;70506;49.320;8.446;2024-03-23T03:26:27;10.35;;;4.75;;
81026;SDS011;70506;49.320;8.446;2024-03-23T03:28:52;8.93;;;5.00;;
81026;SDS011;70506;49.320;8.446;2024-03-23T03:31:18;8.13;;;4.07;;
81026;SDS011;70506;49.320;8.446;2024-03-23T03:33:43;7.10;;;3.65;;
81026;SDS011;70506;49.320;8.446;2024-03-23T03:36:09;8.30;;;3.80;;
81026;SDS011;70506;49.320;8.446;2024-03-23T03:38:35;9.32;;;4.30;;
81026;SDS011;70506;49.320;8.446;2024-03-23T03:41:00;7.23;;;4.20;;
81026;SDS011;70506;49.320;8.446;2024-03-23T03:43:26;12.70;;;4.50;;
81026;SDS011;70506;49.320;8.446;2024-03-23T03:45:52;8.65;;;4.28;;
81026;SDS011;70506;49.320;8.446;2024-03-23T03:50:43;6.10;;;3.57;;
81026;SDS011;70506;49.320;8.446;2024-03-23T03:53:08;13.77;;;5.03;;
81026;SDS011;70506;49.320;8.446;2024-03-23T03:55:33;8.40;;;3.43;;
81026;SDS011;70506;49.320;8.446;2024-03-23T03:57:59;7.53;;;4.03;;
81026;SDS011;70506;49.320;8.446;2024-03-23T04:00:24;10.33;;;4.63;;
81026;SDS011;70506;49.320;8.446;2024-03-23T04:02:50;12.80;;;5.10;;
81026;SDS011;70506;49.320;8.446;2024-03-23T04:05:15;10.65;;;4.70;;
81026;SDS011;70506;49.320;8.446;2024-03-23T04:07:41;10.70;;;4.85;;
81026;SDS011;70506;49.320;8.446;2024-03-23T04:10:07;13.35;;;5.22;;
81026;SDS011;70506;49.320;8.446;2024-03-23T04:12:32;13.48;;;6.07;;
81026;SDS011;70506;49.320;8.446;2024-03-23T04:14:58;8.85;;;4.70;;
81026;SDS011;70506;49.320;8.446;2024-03-23T04:17:23;11.13;;;5.37;;
81026;SDS011;70506;49.320;8.446;2024-03-23T04:19:50;15.68;;;5.72;;
81026;SDS011;70506;49.320;8.446;2024-03-23T04:22:17;10.13;;;5.00;;
81026;SDS011;70506;49.320;8.446;2024-03-23T04:24:44;7.13;;;3.92;;
81026;SDS011;70506;49.320;8.446;2024-03-23T04:27:09;10.02;;;4.07;;
81026;SDS011;70506;49.320;8.446;2024-03-23T04:29:34;11.87;;;4.83;;
81026;SDS011;70506;49.320;8.446;2024-03-23T04:31:59;7.20;;;3.53;;
81026;SDS011;70506;49.320;8.446;2024-03-23T04:34:26;8.88;;;3.47;;
81026;SDS011;70506;49.320;8.446;2024-03-23T04:36:52;9.88;;;4.00;;
81026;SDS011;70506;49.320;8.446;2024-03-23T04:39:17;6.38;;;2.63;;
81026;SDS011;70506;49.320;8.446;2024-03-23T04:41:44;7.00;;;3.40;;
81026;SDS011;70506;49.320;8.446;2024-03-23T04:44:10;7.90;;;3.20;;
81026;SDS011;70506;49.320;8.446;2024-03-23T04:46:35;6.25;;;3.58;;
81026;SDS011;70506;49.320;8.446;2024-03-23T04:49:01;4.70;;;2.70;;
81026;SDS011;70506;49.320;8.446;2024-03-23T04:51:26;6.22;;;2.10;;
81026;SDS011;70506;49.320;8.446;2024-03-23T04:53:51;5.67;;;2.43;;
81026;SDS011;70506;49.320;8.446;2024-03-23T04:56:17;4.05;;;1.70;;
81026;SDS011;70506;49.320;8.446;2024-03-23T04:58:42;3.80;;;1.80;;
81026;SDS011;70506;49.320;8.446;2024-03-23T05:03:34;3.57;;;1.77;;
81026;SDS011;70506;49.320;8.446;2024-03-23T05:05:59;3.17;;;1.30;;
81026;SDS011;70506;49.320;8.446;2024-03-23T05:08:25;3.20;;;1.52;;
81026;SDS011;70506;49.320;8.446;2024-03-23T05:10:50;1.63;;;1.10;;
81026;SDS011;70506;49.320;8.446;2024-03-23T05:13:16;3.72;;;1.10;;
81026;SDS011;70506;49.320;8.446;2024-03-23T05:15:41;2.33;;;1.53;;
81026;SDS011;70506;49.320;8.446;2024-03-23T05:18:06;1.77;;;0.93;;
81026;SDS011;70506;49.320;8.446;2024-03-23T05:20:32;3.17;;;1.55;;
81026;SDS011;70506;49.320;8.446;2024-03-23T05:22:57;1.80;;;0.90;;
81026;SDS011;70506;49.320;8.446;2024-03-23T05:25:22;1.60;;;1.00;;
81026;SDS011;70506;49.320;8.446;2024-03-23T05:27:48;1.30;;;0.80;;
81026;SDS011;70506;49.320;8.446;2024-03-23T05:30:13;1.77;;;1.10;;
81026;SDS011;70506;49.320;8.446;2024-03-23T05:32:39;1.27;;;0.82;;
81026;SDS011;70506;49.320;8.446;2024-03-23T05:35:05;3.15;;;1.00;;
81026;SDS011;70506;49.320;8.446;2024-03-23T05:37:32;1.80;;;0.95;;
81026;SDS011;70506;49.320;8.446;2024-03-23T05:39:59;1.83;;;0.80;;
81026;SDS011;70506;49.320;8.446;2024-03-23T05:42:24;2.47;;;1.13;;
81026;SDS011;70506;49.320;8.446;2024-03-23T05:44:49;2.73;;;0.83;;
81026;SDS011;70506;49.320;8.446;2024-03-23T05:47:15;2.53;;;0.90;;
81026;SDS011;70506;49.320;8.446;2024-03-23T05:52:07;1.67;;;0.85;;
81026;SDS011;70506;49.320;8.446;2024-03-23T05:54:35;1.35;;;1.00;;
81026;SDS011;70506;49.320;8.446;2024-03-23T05:57:01;2.10;;;0.82;;
81026;SDS011;70506;49.320;8.446;2024-03-23T05:59:27;2.03;;;0.65;;
81026;SDS011;70506;49.320;8.446;2024-03-23T06:01:53;1.52;;;0.80;;
81026;SDS011;70506;49.320;8.446;2024-03-23T06:04:18;1.20;;;0.50;;
81026;SDS011;70506;49.320;8.446;2024-03-23T06:06:43;0.57;;;0.28;;
81026;SDS011;70506;49.320;8.446;2024-03-23T06:09:09;2.77;;;0.80;;
81026;SDS011;70506;49.320;8.446;2024-03-23T06:11:34;0.70;;;0.47;;
81026;SDS011;70506;49.320;8.446;2024-03-23T06:13:59;2.43;;;0.83;;
81026;SDS011;70506;49.320;8.446;2024-03-23T06:16:25;0.63;;;0.37;;
81026;SDS011;70506;49.320;8.446;2024-03-23T06:18:50;1.30;;;0.55;;
81026;SDS011;70506;49.320;8.446;2024-03-23T06:21:16;0.40;;;0.17;;
81026;SDS011;70506;49.320;8.446;2024-03-23T06:23:41;0.60;;;0.28;;
81026;SDS011;70506;49.320;8.446;2024-03-23T06:26:07;1.20;;;0.38;;
81026;SDS011;70506;49.320;8.446;2024-03-23T06:28:33;0.68;;;0.40;;
81026;SDS011;70506;49.320;8.446;2024-03-23T06:30:58;0.73;;;0.40;;
81026;SDS011;70506;49.320;8.446;2024-03-23T06:33:24;0.93;;;0.20;;
81026;SDS011;70506;49.320;8.446;2024-03-23T06:35:52;0.20;;;0.20;;
81026;SDS011;70506;49.320;8.446;2024-03-23T06:38:18;0.50;;;0.25;;
81026;SDS011;70506;49.320;8.446;2024-03-23T06:40:43;0.47;;;0.28;;
81026;SDS011;70506;49.320;8.446;2024-03-23T06:43:13;0.65;;;0.20;;
81026;SDS011;70506;49.320;8.446;2024-03-23T06:45:38;0.05;;;0.05;;
81026;SDS011;70506;49.320;8.446;2024-03-23T06:48:04;0.20;;;0.20;;
81026;SDS011;70506;49.320;8.446;2024-03-23T06:50:32;0.90;;;0.20;;
81026;SDS011;70506;49.320;8.446;2024-03-23T06:52:58;0.30;;;0.25;;
81026;SDS011;70506;49.320;8.446;2024-03-23T06:55:24;0.20;;;0.10;;
81026;SDS011;70506;49.320;8.446;2024-03-23T06:57:51;2.10;;;0.22;;
81026;SDS011;70506;49.320;8.446;2024-03-23T07:00:17;0.20;;;0.10;;
81026;SDS011;70506;49.320;8.446;2024-03-23T07:02:42;0.47;;;0.20;;
81026;SDS011;70506;49.320;8.446;2024-03-23T07:05:09;0.22;;;0.20;;
81026;SDS011;70506;49.320;8.446;2024-03-23T07:07:34;0.20;;;0.10;;
81026;SDS011;70506;49.320;8.446;2024-03-23T07:10:00;0.28;;;0.20;;
81026;SDS011;70506;49.320;8.446;2024-03-23T07:12:25;0.00;;;0.00;;
81026;SDS011;70506;49.320;8.446;2024-03-23T07:14:50;0.20;;;0.10;;
81026;SDS011;70506;49.320;8.446;2024-03-23T07:17:16;0.43;;;0.20;;
81026;SDS011;70506;49.320;8.446;2024-03-23T07:19:43;0.25;;;0.25;;
81026;SDS011;70506;49.320;8.446;2024-03-23T07:22:09;2.00;;;0.40;;
81026;SDS011;70506;49.320;8.446;2024-03-23T07:24:35;1.08;;;0.40;;
81026;SDS011;70506;49.320;8.446;2024-03-23T07:27:00;0.85;;;0.57;;
81026;SDS011;70506;49.320;8.446;2024-03-23T07:29:27;1.65;;;0.10;;
81026;SDS011;70506;49.320;8.446;2024-03-23T07:31:54;0.73;;;0.47;;
81026;SDS011;70506;49.320;8.446;2024-03-23T07:34:21;0.68;;;0.30;;
81026;SDS011;70506;49.320;8.446;2024-03-23T07:36:46;0.28;;;0.20;;
81026;SDS011;70506;49.320;8.446;2024-03-23T07:39:25;0.40;;;0.20;;
81026;SDS011;70506;49.320;8.446;2024-03-23T07:41:52;0.40;;;0.22;;
81026;SDS011;70506;49.320;8.446;2024-03-23T07:44:24;0.37;;;0.10;;
81026;SDS011;70506;49.320;8.446;2024-03-23T07:46:50;0.80;;;0.40;;
81026;SDS011;70506;49.320;8.446;2024-03-23T07:49:15;0.10;;;0.10;;
81026;SDS011;70506;49.320;8.446;2024-03-23T07:51:41;0.63;;;0.40;;
81026;SDS011;70506;49.320;8.446;2024-03-23T07:54:06;3.15;;;0.52;;
81026;SDS011;70506;49.320;8.446;2024-03-23T07:56:31;1.45;;;0.38;;
81026;SDS011;70506;49.320;8.446;2024-03-23T07:58:57;1.27;;;0.32;;
81026;SDS011;70506;49.320;8.446;2024-03-23T08:01:22;5.73;;;0.43;;
81026;SDS011;70506;49.320;8.446;2024-03-23T08:03:49;2.42;;;0.70;;
81026;SDS011;70506;49.320;8.446;2024-03-23T08:06:15;1.25;;;0.63;;
81026;SDS011;70506;49.320;8.446;2024-03-23T08:08:42;1.88;;;0.65;;
81026;SDS011;70506;49.320;8.446;2024-03-23T08:11:08;2.72;;;0.98;;
81026;SDS011;70506;49.320;8.446;2024-03-23T08:13:34;1.05;;;0.57;;
81026;SDS011;70506;49.320;8.446;2024-03-23T08:16:00;0.50;;;0.50;;
81026;SDS011;70506;49.320;8.446;2024-03-23T08:18:26;4.72;;;1.02;;
81026;SDS011;70506;49.320;8.446;2024-03-23T08:21:00;1.58;;;0.70;;
81026;SDS011;70506;49.320;8.446;2024-03-23T08:23:27;3.55;;;1.10;;
81026;SDS011;70506;49.320;8.446;2024-03-23T08:26:00;1.88;;;0.85;;
81026;SDS011;70506;49.320;8.446;2024-03-23T08:28:26;1.25;;;0.60;;
81026;SDS011;70506;49.320;8.446;2024-03-23T08:30:52;1.80;;;0.93;;
81026;SDS011;70506;49.320;8.446;2024-03-23T08:33:18;2.45;;;0.70;;
81026;SDS011;70506;49.320;8.446;2024-03-23T08:35:57;1.17;;;0.60;;
81026;SDS011;70506;49.320;8.446;2024-03-23T08:38:24;5.20;;;1.60;;
81026;SDS011;70506;49.320;8.446;2024-03-23T08:40:59;3.08;;;0.73;;
81026;SDS011;70506;49.320;8.446;2024-03-23T08:43:25;2.40;;;0.77;;
81026;SDS011;70506;49.320;8.446;2024-03-23T08:45:51;4.82;;;0.85;;
81026;SDS011;70506;49.320;8.446;2024-03-23T08:48:17;2.83;;;0.70;;
81026;SDS011;70506;49.320;8.446;2024-03-23T08:53:08;1.53;;;0.67;;
81026;SDS011;70506;49.320;8.446;2024-03-23T08:55:33;2.53;;;1.00;;
81026;SDS011;70506;49.320;8.446;2024-03-23T08:57:59;1.63;;;0.80;;
81026;SDS011;70506;49.320;8.446;2024-03-23T09:02:50;4.07;;;0.77;;
81026;SDS011;70506;49.320;8.446;2024-03-23T09:05:16;2.07;;;0.83;;
81026;SDS011;70506;49.320;8.446;2024-03-23T09:07:41;5.87;;;0.87;;
81026;SDS011;70506;49.320;8.446;2024-03-23T09:10:06;4.60;;;0.97;;
81026;SDS011;70506;49.320;8.446;2024-03-23T09:12:32;3.15;;;1.00;;
81026;SDS011;70506;49.320;8.446;2024-03-23T09:14:57;2.13;;;1.02;;
81026;SDS011;70506;49.320;8.446;2024-03-23T09:17:23;3.30;;;1.13;;
81026;SDS011;70506;49.320;8.446;2024-03-23T09:19:48;4.78;;;1.20;;
81026;SDS011;70506;49.320;8.446;2024-03-23T09:22:13;5.43;;;1.20;;
81026;SDS011;70506;49.320;8.446;2024-03-23T09:24:39;3.42;;;0.90;;
81026;SDS011;70506;49.320;8.446;2024-03-23T09:27:05;3.33;;;1.00;;
81026;SDS011;70506;49.320;8.446;2024-03-23T09:29:30;7.57;;;1.37;;
81026;SDS011;70506;49.320;8.446;2024-03-23T09:31:55;1.37;;;1.00;;
81026;SDS011;70506;49.320;8.446;2024-03-23T09:34:20;4.20;;;1.10;;
81026;SDS011;70506;49.320;8.446;2024-03-23T09:36:46;1.77;;;1.02;;
81026;SDS011;70506;49.320;8.446;2024-03-23T09:39:12;4.53;;;1.00;;
81026;SDS011;70506;49.320;8.446;2024-03-23T09:41:38;3.92;;;1.20;;
81026;SDS011;70506;49.320;8.446;2024-03-23T09:44:04;1.88;;;1.13;;
81026;SDS011;70506;49.320;8.446;2024-03-23T09:46:30;1.98;;;0.82;;
81026;SDS011;70506;49.320;8.446;2024-03-23T09:48:59;5.43;;;1.00;;
81026;SDS011;70506;49.320;8.446;2024-03-23T09:51:25;4.22;;;1.05;;
81026;SDS011;70506;49.320;8.446;2024-03-23T09:53:50;3.35;;;1.30;;
81026;SDS011;70506;49.320;8.446;2024-03-23T09:56:18;4.72;;;1.38;;
81026;SDS011;70506;49.320;8.446;2024-03-23T09:58:43;2.27;;;1.00;;
81026;SDS011;70506;49.320;8.446;2024-03-23T10:01:08;3.97;;;1.27;;
81026;SDS011;70506;49.320;8.446;2024-03-23T10:03:42;2.55;;;1.13;;
81026;SDS011;70506;49.320;8.446;2024-03-23T10:06:10;3.50;;;1.45;;
81026;SDS011;70506;49.320;8.446;2024-03-23T10:08:36;1.13;;;0.70;;
81026;SDS011;70506;49.320;8.446;2024-03-23T10:11:12;2.53;;;1.15;;
81026;SDS011;70506;49.320;8.446;2024-03-23T10:13:41;2.90;;;1.17;;
81026;SDS011;70506;49.320;8.446;2024-03-23T10:16:08;3.83;;;1.20;;
81026;SDS011;70506;49.320;8.446;2024-03-23T10:18:37;3.38;;;1.17;;
81026;SDS011;70506;49.320;8.446;2024-03-23T10:23:34;3.70;;;1.10;;
81026;SDS011;70506;49.320;8.446;2024-03-23T10:26:13;1.92;;;1.10;;
81026;SDS011;70506;49.320;8.446;2024-03-23T10:28:52;1.77;;;1.10;;
81026;SDS011;70506;49.320;8.446;2024-03-23T10:31:21;2.53;;;1.45;;
81026;SDS011;70506;49.320;8.446;2024-03-23T10:33:47;2.38;;;1.00;;
81026;SDS011;70506;49.320;8.446;2024-03-23T10:36:13;1.38;;;0.73;;
81026;SDS011;70506;49.320;8.446;2024-03-23T10:38:43;1.95;;;0.93;;
81026;SDS011;70506;49.320;8.446;2024-03-23T10:41:09;3.08;;;0.85;;
81026;SDS011;70506;49.320;8.446;2024-03-23T10:43:35;6.35;;;0.93;;
81026;SDS011;70506;49.320;8.446;2024-03-23T10:46:01;4.05;;;0.88;;
81026;SDS011;70506;49.320;8.446;2024-03-23T10:48:27;1.60;;;0.68;;
81026;SDS011;70506;49.320;8.446;2024-03-23T10:50:52;2.63;;;1.27;;
81026;SDS011;70506;49.320;8.446;2024-03-23T10:53:18;0.88;;;0.65;;
81026;SDS011;70506;49.320;8.446;2024-03-23T10:55:44;2.92;;;0.75;;
81026;SDS011;70506;49.320;8.446;2024-03-23T10:58:09;2.78;;;0.90;;
81026;SDS011;70506;49.320;8.446;2024-03-23T11:00:37;1.70;;;0.57;;
81026;SDS011;70506;49.320;8.446;2024-03-23T11:05:57;3.03;;;0.65;;
81026;SDS011;70506;49.320;8.446;2024-03-23T11:08:29;3.80;;;0.80;;
81026;SDS011;70506;49.320;8.446;2024-03-23T11:11:20;1.48;;;0.60;;
81026;SDS011;70506;49.320;8.446;2024-03-23T11:13:52;4.10;;;0.88;;
81026;SDS011;70506;49.320;8.446;2024-03-23T11:16:27;3.85;;;0.90;;
81026;SDS011;70506;49.320;8.446;2024-03-23T11:22:01;1.85;;;0.65;;
81026;SDS011;70506;49.320;8.446;2024-03-23T11:24:26;1.67;;;0.73;;
81026;SDS011;70506;49.320;8.446;2024-03-23T11:26:51;1.43;;;0.97;;
81026;SDS011;70506;49.320;8.446;2024-03-23T11:29:17;2.70;;;0.68;;
81026;SDS011;70506;49.320;8.446;2024-03-23T11:34:16;2.90;;;0.95;;
81026;SDS011;70506;49.320;8.446;2024-03-23T11:36:42;3.38;;;1.27;;
81026;SDS011;70506;49.320;8.446;2024-03-23T11:39:18;0.80;;;0.60;;
81026;SDS011;70506;49.320;8.446;2024-03-23T11:41:51;3.13;;;1.00;;
81026;SDS011;70506;49.320;8.446;2024-03-23T11:44:17;2.67;;;0.90;;
81026;SDS011;70506;49.320;8.446;2024-03-23T11:46:46;1.27;;;0.82;;
81026;SDS011;70506;49.320;8.446;2024-03-23T11:51:49;1.83;;;0.65;;
81026;SDS011;70506;49.320;8.446;2024-03-23T11:54:20;6.63;;;0.88;;
81026;SDS011;70506;49.320;8.446;2024-03-23T11:59:39;2.60;;;0.80;;
81026;SDS011;70506;49.320;8.446;2024-03-23T12:02:09;2.88;;;0.90;;
81026;SDS011;70506;49.320;8.446;2024-03-23T12:04:35;1.95;;;1.17;;
81026;SDS011;70506;49.320;8.446;2024-03-23T12:09:40;2.75;;;0.75;;
81026;SDS011;70506;49.320;8.446;2024-03-23T12:12:24;1.00;;;0.52;;
81026;SDS011;70506;49.320;8.446;2024-03-23T12:15:03;1.85;;;0.80;;
81026;SDS011;70506;49.320;8.446;2024-03-23T12:17:31;3.50;;;0.73;;
81026;SDS011;70506;49.320;8.446;2024-03-23T12:19:56;1.02;;;0.60;;
81026;SDS011;70506;49.320;8.446;2024-03-23T12:22:22;1.20;;;0.85;;
81026;SDS011;70506;49.320;8.446;2024-03-23T12:24:48;4.20;;;1.25;;
81026;SDS011;70506;49.320;8.446;2024-03-23T12:27:13;3.10;;;0.93;;
81026;SDS011;70506;49.320;8.446;2024-03-23T12:32:06;4.43;;;0.82;;
81026;SDS011;70506;49.320;8.446;2024-03-23T12:34:32;3.08;;;0.77;;
81026;SDS011;70506;49.320;8.446;2024-03-23T12:36:57;1.87;;;0.77;;
81026;SDS011;70506;49.320;8.446;2024-03-23T12:39:22;2.27;;;0.70;;
81026;SDS011;70506;49.320;8.446;2024-03-23T12:41:48;1.40;;;0.53;;
81026;SDS011;70506;49.320;8.446;2024-03-23T12:44:14;2.15;;;1.00;;
81026;SDS011;70506;49.320;8.446;2024-03-23T12:49:05;2.50;;;0.60;;
81026;SDS011;70506;49.320;8.446;2024-03-23T12:51:31;2.87;;;1.00;;
81026;SDS011;70506;49.320;8.446;2024-03-23T12:53:57;1.42;;;0.75;;
81026;SDS011;70506;49.320;8.446;2024-03-23T12:56:31;2.03;;;0.80;;
81026;SDS011;70506;49.320;8.446;2024-03-23T12:58:57;1.48;;;0.52;;
81026;SDS011;70506;49.320;8.446;2024-03-23T13:01:23;1.42;;;0.30;;
81026;SDS011;70506;49.320;8.446;2024-03-23T13:03:48;0.20;;;0.20;;
81026;SDS011;70506;49.320;8.446;2024-03-23T13:06:14;0.47;;;0.17;;
81026;SDS011;70506;49.320;8.446;2024-03-23T13:08:40;0.28;;;0.20;;
81026;SDS011;70506;49.320;8.446;2024-03-23T13:11:06;0.30;;;0.20;;
81026;SDS011;70506;49.320;8.446;2024-03-23T13:13:33;0.25;;;0.10;;
81026;SDS011;70506;49.320;8.446;2024-03-23T13:15:59;0.63;;;0.45;;
81026;SDS011;70506;49.320;8.446;2024-03-23T13:18:24;0.57;;;0.07;;
81026;SDS011;70506;49.320;8.446;2024-03-23T13:20:50;0.20;;;0.20;;
81026;SDS011;70506;49.320;8.446;2024-03-23T13:23:15;0.20;;;0.10;;
81026;SDS011;70506;49.320;8.446;2024-03-23T13:25:40;0.57;;;0.30;;
81026;SDS011;70506;49.320;8.446;2024-03-23T13:28:06;1.10;;;0.97;;
81026;SDS011;70506;49.320;8.446;2024-03-23T13:30:31;1.17;;;0.63;;
81026;SDS011;70506;49.320;8.446;2024-03-23T13:32:56;3.33;;;0.40;;
81026;SDS011;70506;49.320;8.446;2024-03-23T13:35:22;0.40;;;0.30;;
81026;SDS011;70506;49.320;8.446;2024-03-23T13:37:47;0.20;;;0.20;;
81026;SDS011;70506;49.320;8.446;2024-03-23T13:40:13;0.75;;;0.35;;
81026;SDS011;70506;49.320;8.446;2024-03-23T13:42:38;1.10;;;0.55;;
81026;SDS011;70506;49.320;8.446;2024-03-23T13:48:26;0.43;;;0.38;;
81026;SDS011;70506;49.320;8.446;2024-03-23T13:50:59;1.63;;;0.40;;
81026;SDS011;70506;49.320;8.446;2024-03-23T13:53:24;0.47;;;0.30;;
81026;SDS011;70506;49.320;8.446;2024-03-23T13:55:50;0.28;;;0.20;;
81026;SDS011;70506;49.320;8.446;2024-03-23T13:58:15;2.28;;;0.30;;
81026;SDS011;70506;49.320;8.446;2024-03-23T14:00:41;1.20;;;0.38;;
81026;SDS011;70506;49.320;8.446;2024-03-23T14:03:09;1.85;;;0.40;;
81026;SDS011;70506;49.320;8.446;2024-03-23T14:05:35;1.40;;;0.77;;
81026;SDS011;70506;49.320;8.446;2024-03-23T14:08:01;0.90;;;0.40;;
81026;SDS011;70506;49.320;8.446;2024-03-23T14:10:26;0.20;;;0.20;;
81026;SDS011;70506;49.320;8.446;2024-03-23T14:15:18;0.67;;;0.40;;
81026;SDS011;70506;49.320;8.446;2024-03-23T14:17:43;0.80;;;0.45;;
81026;SDS011;70506;49.320;8.446;2024-03-23T14:20:08;0.20;;;0.20;;
81026;SDS011;70506;49.320;8.446;2024-03-23T14:22:36;0.50;;;0.30;;
81026;SDS011;70506;49.320;8.446;2024-03-23T14:25:02;0.65;;;0.40;;
81026;SDS011;70506;49.320;8.446;2024-03-23T14:27:27;0.95;;;0.47;;
81026;SDS011;70506;49.320;8.446;2024-03-23T14:29:52;2.47;;;0.50;;
81026;SDS011;70506;49.320;8.446;2024-03-23T14:32:18;2.53;;;0.33;;
81026;SDS011;70506;49.320;8.446;2024-03-23T14:34:43;0.73;;;0.50;;
81026;SDS011;70506;49.320;8.446;2024-03-23T14:37:08;0.50;;;0.37;;
81026;SDS011;70506;49.320;8.446;2024-03-23T14:39:33;0.40;;;0.40;;
81026;SDS011;70506;49.320;8.446;2024-03-23T14:42:04;1.95;;;0.22;;
81026;SDS011;70506;49.320;8.446;2024-03-23T14:44:31;1.30;;;0.45;;
81026;SDS011;70506;49.320;8.446;2024-03-23T14:46:56;0.63;;;0.20;;
81026;SDS011;70506;49.320;8.446;2024-03-23T14:49:22;1.60;;;0.60;;
81026;SDS011;70506;49.320;8.446;2024-03-23T14:51:47;1.43;;;0.57;;
81026;SDS011;70506;49.320;8.446;2024-03-23T14:54:12;2.20;;;0.53;;
81026;SDS011;70506;49.320;8.446;2024-03-23T14:56:38;0.30;;;0.30;;
81026;SDS011;70506;49.320;8.446;2024-03-23T14:59:03;1.65;;;0.40;;
81026;SDS011;70506;49.320;8.446;2024-03-23T15:01:29;0.33;;;0.30;;
81026;SDS011;70506;49.320;8.446;2024-03-23T15:03:54;0.80;;;0.20;;
81026;SDS011;70506;49.320;8.446;2024-03-23T15:06:19;1.47;;;0.60;;
81026;SDS011;70506;49.320;8.446;2024-03-23T15:08:44;0.60;;;0.33;;
81026;SDS011;70506;49.320;8.446;2024-03-23T15:11:10;1.85;;;0.60;;
81026;SDS011;70506;49.320;8.446;2024-03-23T15:13:35;0.93;;;0.52;;
81026;SDS011;70506;49.320;8.446;2024-03-23T15:16:01;3.00;;;0.40;;
81026;SDS011;70506;49.320;8.446;2024-03-23T15:18:29;1.70;;;0.50;;
81026;SDS011;70506;49.320;8.446;2024-03-23T15:20:58;4.28;;;0.50;;
81026;SDS011;70506;49.320;8.446;2024-03-23T15:23:27;0.60;;;0.25;;
81026;SDS011;70506;49.320;8.446;2024-03-23T15:25:53;0.82;;;0.32;;
81026;SDS011;70506;49.320;8.446;2024-03-23T15:28:19;1.83;;;0.65;;
81026;SDS011;70506;49.320;8.446;2024-03-23T15:30:45;0.73;;;0.30;;
81026;SDS011;70506;49.320;8.446;2024-03-23T15:33:10;1.10;;;0.80;;
81026;SDS011;70506;49.320;8.446;2024-03-23T15:35:35;0.93;;;0.50;;
81026;SDS011;70506;49.320;8.446;2024-03-23T15:38:00;1.50;;;0.50;;
81026;SDS011;70506;49.320;8.446;2024-03-23T15:40:26;2.03;;;1.17;;
81026;SDS011;70506;49.320;8.446;2024-03-23T15:42:52;15.88;;;0.65;;
81026;SDS011;70506;49.320;8.446;2024-03-23T15:45:17;3.83;;;0.30;;
81026;SDS011;70506;49.320;8.446;2024-03-23T15:47:42;0.53;;;0.30;;
81026;SDS011;70506;49.320;8.446;2024-03-23T15:50:08;1.10;;;0.23;;
81026;SDS011;70506;49.320;8.446;2024-03-23T15:52:37;1.35;;;0.50;;
81026;SDS011;70506;49.320;8.446;2024-03-23T15:55:05;0.45;;;0.30;;
81026;SDS011;70506;49.320;8.446;2024-03-23T15:57:32;0.45;;;0.40;;
81026;SDS011;70506;49.320;8.446;2024-03-23T15:59:58;0.15;;;0.10;;
81026;SDS011;70506;49.320;8.446;2024-03-23T16:02:23;0.30;;;0.20;;
81026;SDS011;70506;49.320;8.446;2024-03-23T16:04:48;0.40;;;0.17;;
81026;SDS011;70506;49.320;8.446;2024-03-23T16:07:14;0.30;;;0.10;;
81026;SDS011;70506;49.320;8.446;2024-03-23T16:09:39;0.00;;;0.00;;
81026;SDS011;70506;49.320;8.446;2024-03-23T16:12:04;0.60;;;0.23;;
81026;SDS011;70506;49.320;8.446;2024-03-23T16:14:30;1.02;;;0.35;;
81026;SDS011;70506;49.320;8.446;2024-03-23T16:16:56;1.33;;;0.43;;
81026;SDS011;70506;49.320;8.446;2024-03-23T16:19:22;0.20;;;0.17;;